sensor_id;sensor_type;location;lat;lon;timestamp;pressure;altitude;pressure_sealevel;temperature;humidity
21753;BME280;11038;50.940;20.564;2022-11-02T00:01:28;98077.16;;;9.22;100.00
21753;BME280;11038;50.940;20.564;2022-11-02T00:03:01;98070.28;;;9.19;100.00
21753;BME280;11038;50.940;20.564;2022-11-02T00:04:34;98088.16;;;9.19;100.00
21753;BME280;11038;50.940;20.564;2022-11-02T00:06:06;98083.50;;;9.21;100.00
21753;BME280;11038;50.940;20.564;2022-11-02T00:07:40;98081.28;;;9.16;100.00
21753;BME280;11038;50.940;20.564;2022-11-02T00:09:12;98089.13;;;9.18;100.00
21753;BME280;11038;50.940;20.564;2022-11-02T00:10:45;98075.31;;;9.23;100.00
21753;BME280;11038;50.940;20.564;2022-11-02T00:12:17;98072.00;;;9.21;100.00
21753;BME280;11038;50.940;20.564;2022-11-02T00:13:50;98075.03;;;9.26;100.00
21753;BME280;11038;50.940;20.564;2022-11-02T00:15:26;98074.03;;;9.27;100.00
21753;BME280;11038;50.940;20.564;2022-11-02T00:17:06;98082.88;;;9.27;100.00
21753;BME280;11038;50.940;20.564;2022-11-02T00:18:41;98079.69;;;9.24;100.00
21753;BME280;11038;50.940;20.564;2022-11-02T00:20:19;98078.28;;;9.19;100.00
21753;BME280;11038;50.940;20.564;2022-11-02T00:21:52;98081.19;;;9.26;100.00
21753;BME280;11038;50.940;20.564;2022-11-02T00:23:24;98083.56;;;9.29;100.00
21753;BME280;11038;50.940;20.564;2022-11-02T00:24:56;98081.75;;;9.30;100.00
21753;BME280;11038;50.940;20.564;2022-11-02T00:26:35;98078.75;;;9.33;100.00
21753;BME280;11038;50.940;20.564;2022-11-02T00:28:08;98078.75;;;9.33;100.00
21753;BME280;11038;50.940;20.564;2022-11-02T00:29:40;98082.25;;;9.34;100.00
21753;BME280;11038;50.940;20.564;2022-11-02T00:31:12;98076.06;;;9.33;100.00
21753;BME280;11038;50.940;20.564;2022-11-02T00:32:45;98076.91;;;9.34;100.00
21753;BME280;11038;50.940;20.564;2022-11-02T00:34:17;98076.63;;;9.37;100.00
21753;BME280;11038;50.940;20.564;2022-11-02T00:35:49;98079.44;;;9.35;100.00
21753;BME280;11038;50.940;20.564;2022-11-02T00:37:22;98076.63;;;9.37;100.00
21753;BME280;11038;50.940;20.564;2022-11-02T00:38:54;98085.28;;;9.39;100.00
21753;BME280;11038;50.940;20.564;2022-11-02T00:40:27;98088.81;;;9.39;100.00
21753;BME280;11038;50.940;20.564;2022-11-02T00:41:59;98088.97;;;9.38;100.00
21753;BME280;11038;50.940;20.564;2022-11-02T00:43:32;98096.50;;;9.43;100.00
21753;BME280;11038;50.940;20.564;2022-11-02T00:45:05;98098.13;;;9.35;100.00
21753;BME280;11038;50.940;20.564;2022-11-02T00:46:39;98103.28;;;9.37;100.00
21753;BME280;11038;50.940;20.564;2022-11-02T00:48:11;98096.13;;;9.37;100.00
21753;BME280;11038;50.940;20.564;2022-11-02T00:49:43;98095.16;;;9.38;100.00
21753;BME280;11038;50.940;20.564;2022-11-02T00:51:16;98094.00;;;9.41;100.00
21753;BME280;11038;50.940;20.564;2022-11-02T00:52:48;98096.19;;;9.46;100.00
21753;BME280;11038;50.940;20.564;2022-11-02T00:54:21;98097.03;;;9.46;100.00
21753;BME280;11038;50.940;20.564;2022-11-02T00:56:00;98101.53;;;9.46;100.00
21753;BME280;11038;50.940;20.564;2022-11-02T00:57:32;98101.84;;;9.43;100.00
21753;BME280;11038;50.940;20.564;2022-11-02T00:59:04;98106.50;;;9.40;100.00
21753;BME280;11038;50.940;20.564;2022-11-02T01:00:37;98095.66;;;9.42;100.00
21753;BME280;11038;50.940;20.564;2022-11-02T01:02:09;98103.66;;;9.42;100.00
21753;BME280;11038;50.940;20.564;2022-11-02T01:03:42;98108.47;;;9.38;100.00
21753;BME280;11038;50.940;20.564;2022-11-02T01:05:14;98107.47;;;9.39;100.00
21753;BME280;11038;50.940;20.564;2022-11-02T01:06:47;98106.31;;;9.42;100.00
21753;BME280;11038;50.940;20.564;2022-11-02T01:08:19;98108.53;;;9.47;100.00
21753;BME280;11038;50.940;20.564;2022-11-02T01:09:51;98109.06;;;9.50;100.00
21753;BME280;11038;50.940;20.564;2022-11-02T01:11:24;98107.25;;;9.51;100.00
21753;BME280;11038;50.940;20.564;2022-11-02T01:12:56;98104.56;;;9.51;100.00
21753;BME280;11038;50.940;20.564;2022-11-02T01:14:29;98107.25;;;9.51;100.00
21753;BME280;11038;50.940;20.564;2022-11-02T01:16:05;98108.75;;;9.54;100.00
21753;BME280;11038;50.940;20.564;2022-11-02T01:17:37;98109.59;;;9.54;100.00
21753;BME280;11038;50.940;20.564;2022-11-02T01:19:10;98110.28;;;9.56;100.00
21753;BME280;11038;50.940;20.564;2022-11-02T01:20:42;98110.94;;;9.58;100.00
21753;BME280;11038;50.940;20.564;2022-11-02T01:22:14;98114.00;;;9.63;100.00
21753;BME280;11038;50.940;20.564;2022-11-02T01:23:47;98111.63;;;9.60;100.00
21753;BME280;11038;50.940;20.564;2022-11-02T01:25:19;98111.63;;;9.60;100.00
21753;BME280;11038;50.940;20.564;2022-11-02T01:26:52;98105.16;;;9.63;100.00
21753;BME280;11038;50.940;20.564;2022-11-02T01:28:24;98105.63;;;9.58;100.00
21753;BME280;11038;50.940;20.564;2022-11-02T01:29:56;98110.66;;;9.61;100.00
21753;BME280;11038;50.940;20.564;2022-11-02T01:31:29;98115.69;;;9.65;100.00
21753;BME280;11038;50.940;20.564;2022-11-02T01:33:05;98108.34;;;9.67;100.00
21753;BME280;11038;50.940;20.564;2022-11-02T01:34:37;98112.03;;;9.66;100.00
21753;BME280;11038;50.940;20.564;2022-11-02T01:36:10;98108.03;;;9.70;100.00
21753;BME280;11038;50.940;20.564;2022-11-02T01:37:43;98109.72;;;9.71;100.00
21753;BME280;11038;50.940;20.564;2022-11-02T01:39:15;98112.53;;;9.69;100.00
21753;BME280;11038;50.940;20.564;2022-11-02T01:40:47;98110.66;;;9.61;100.00
21753;BME280;11038;50.940;20.564;2022-11-02T01:42:24;98101.66;;;9.62;100.00
21753;BME280;11038;50.940;20.564;2022-11-02T01:43:57;98110.03;;;9.68;100.00
21753;BME280;11038;50.940;20.564;2022-11-02T01:45:33;98115.38;;;9.68;100.00
21753;BME280;11038;50.940;20.564;2022-11-02T01:48:57;98110.03;;;9.68;100.00
21753;BME280;11038;50.940;20.564;2022-11-02T01:50:32;98108.03;;;9.70;100.00
21753;BME280;11038;50.940;20.564;2022-11-02T01:52:08;98114.22;;;9.70;100.00
21753;BME280;11038;50.940;20.564;2022-11-02T01:53:47;98113.91;;;9.73;100.00
21753;BME280;11038;50.940;20.564;2022-11-02T01:55:25;98108.56;;;9.73;100.00
21753;BME280;11038;50.940;20.564;2022-11-02T01:57:06;98119.38;;;9.72;100.00
21753;BME280;11038;50.940;20.564;2022-11-02T01:58:41;98117.03;;;9.69;100.00
21753;BME280;11038;50.940;20.564;2022-11-02T02:00:17;98115.06;;;9.71;100.00
21753;BME280;11038;50.940;20.564;2022-11-02T02:01:50;98122.44;;;9.77;100.00
21753;BME280;11038;50.940;20.564;2022-11-02T02:03:23;98119.25;;;9.73;100.00
21753;BME280;11038;50.940;20.564;2022-11-02T02:05:05;98119.25;;;9.73;100.00
21753;BME280;11038;50.940;20.564;2022-11-02T02:06:40;98119.09;;;9.75;100.00
21753;BME280;11038;50.940;20.564;2022-11-02T02:08:18;98122.28;;;9.79;100.00
21753;BME280;11038;50.940;20.564;2022-11-02T02:09:52;98117.94;;;9.78;100.00
21753;BME280;11038;50.940;20.564;2022-11-02T02:11:28;98121.44;;;9.78;100.00
21753;BME280;11038;50.940;20.564;2022-11-02T02:13:02;98118.94;;;9.77;100.00
21753;BME280;11038;50.940;20.564;2022-11-02T02:14:36;98123.81;;;9.81;100.00
21753;BME280;11038;50.940;20.564;2022-11-02T02:16:19;98118.16;;;9.84;100.00
21753;BME280;11038;50.940;20.564;2022-11-02T02:18:19;98120.13;;;9.82;100.00
21753;BME280;11038;50.940;20.564;2022-11-02T02:22:12;98125.31;;;9.84;100.00
21753;BME280;11038;50.940;20.564;2022-11-02T02:26:41;98112.13;;;9.82;100.00
21753;BME280;11038;50.940;20.564;2022-11-02T02:29:23;98111.75;;;9.77;100.00
21753;BME280;11038;50.940;20.564;2022-11-02T02:32:59;98124.78;;;9.80;100.00
21753;BME280;11038;50.940;20.564;2022-11-02T02:35:03;98128.47;;;9.79;100.00
21753;BME280;11038;50.940;20.564;2022-11-02T02:36:50;98121.50;;;9.87;100.00
21753;BME280;11038;50.940;20.564;2022-11-02T02:38:42;98123.88;;;9.90;100.00
21753;BME280;11038;50.940;20.564;2022-11-02T02:40:26;98131.19;;;9.88;100.00
21753;BME280;11038;50.940;20.564;2022-11-02T02:42:20;98131.34;;;9.86;100.00
21753;BME280;11038;50.940;20.564;2022-11-02T02:44:18;98122.13;;;9.80;100.00
21753;BME280;11038;50.940;20.564;2022-11-02T02:45:59;98129.50;;;9.87;100.00
21753;BME280;11038;50.940;20.564;2022-11-02T02:47:41;98121.19;;;9.90;100.00
21753;BME280;11038;50.940;20.564;2022-11-02T02:49:30;98128.47;;;9.79;100.00
21753;BME280;11038;50.940;20.564;2022-11-02T02:51:13;98136.13;;;9.82;100.00
21753;BME280;11038;50.940;20.564;2022-11-02T02:52:50;98130.78;;;9.82;100.00
21753;BME280;11038;50.940;20.564;2022-11-02T02:54:35;98133.53;;;9.91;100.00
21753;BME280;11038;50.940;20.564;2022-11-02T02:56:10;98131.69;;;9.91;100.00
21753;BME280;11038;50.940;20.564;2022-11-02T02:57:46;98135.88;;;9.94;100.00
21753;BME280;11038;50.940;20.564;2022-11-02T02:59:28;98135.88;;;9.94;100.00
21753;BME280;11038;50.940;20.564;2022-11-02T03:01:04;98136.56;;;9.96;100.00
21753;BME280;11038;50.940;20.564;2022-11-02T03:02:37;98128.41;;;9.98;100.00
21753;BME280;11038;50.940;20.564;2022-11-02T03:04:12;98134.22;;;9.93;100.00
21753;BME280;11038;50.940;20.564;2022-11-02T03:06:03;98130.91;;;9.99;100.00
21753;BME280;11038;50.940;20.564;2022-11-02T03:07:37;98135.28;;;10.00;100.00
21753;BME280;11038;50.940;20.564;2022-11-02T03:09:45;98137.09;;;10.00;100.00
21753;BME280;11038;50.940;20.564;2022-11-02T03:11:21;98141.44;;;10.01;100.00
21753;BME280;11038;50.940;20.564;2022-11-02T03:15:35;98145.88;;;9.92;100.00
21753;BME280;11038;50.940;20.564;2022-11-02T03:23:00;98148.94;;;9.97;100.00
21753;BME280;11038;50.940;20.564;2022-11-02T03:26:51;98155.66;;;10.01;100.00
21753;BME280;11038;50.940;20.564;2022-11-02T03:28:41;98145.94;;;10.00;100.00
21753;BME280;11038;50.940;20.564;2022-11-02T03:30:23;98146.50;;;9.85;100.00
21753;BME280;11038;50.940;20.564;2022-11-02T03:32:00;98164.25;;;9.95;100.00
21753;BME280;11038;50.940;20.564;2022-11-02T03:36:09;98155.66;;;10.01;100.00
21753;BME280;11038;50.940;20.564;2022-11-02T03:37:56;98157.59;;;9.99;100.00
21753;BME280;11038;50.940;20.564;2022-11-02T03:39:41;98154.94;;;9.99;100.00
21753;BME280;11038;50.940;20.564;2022-11-02T03:41:19;98152.28;;;9.99;100.00
21753;BME280;11038;50.940;20.564;2022-11-02T03:42:55;98160.28;;;9.99;100.00
21753;BME280;11038;50.940;20.564;2022-11-02T03:44:33;98154.94;;;9.99;100.00
21753;BME280;11038;50.940;20.564;2022-11-02T03:46:10;98156.63;;;10.00;100.00
21753;BME280;11038;50.940;20.564;2022-11-02T03:47:51;98163.97;;;9.98;100.00
21753;BME280;11038;50.940;20.564;2022-11-02T03:49:27;98161.28;;;9.98;100.00
21753;BME280;11038;50.940;20.564;2022-11-02T03:51:06;98160.28;;;9.99;100.00
21753;BME280;11038;50.940;20.564;2022-11-02T03:52:45;98164.78;;;9.99;100.00
21753;BME280;11038;50.940;20.564;2022-11-02T03:58:22;98166.16;;;10.03;100.00
21753;BME280;11038;50.940;20.564;2022-11-02T04:00:19;98167.84;;;10.04;100.00
21753;BME280;11038;50.940;20.564;2022-11-02T04:01:52;98177.69;;;10.03;100.00
21753;BME280;11038;50.940;20.564;2022-11-02T04:03:26;98165.31;;;10.02;100.00
21753;BME280;11038;50.940;20.564;2022-11-02T04:05:00;98166.16;;;10.03;100.00
21753;BME280;11038;50.940;20.564;2022-11-02T04:06:33;98168.16;;;10.01;100.00
21753;BME280;11038;50.940;20.564;2022-11-02T04:08:07;98166.47;;;10.00;100.00
21753;BME280;11038;50.940;20.564;2022-11-02T04:09:52;98162.63;;;10.02;100.00
21753;BME280;11038;50.940;20.564;2022-11-02T04:11:26;98169.00;;;10.01;100.00
21753;BME280;11038;50.940;20.564;2022-11-02T04:13:17;98162.63;;;10.02;100.00
21753;BME280;11038;50.940;20.564;2022-11-02T04:15:09;98167.31;;;10.00;100.00
21753;BME280;11038;50.940;20.564;2022-11-02T04:16:42;98169.97;;;10.00;100.00
21753;BME280;11038;50.940;20.564;2022-11-02T04:18:14;98171.78;;;10.00;100.00
21753;BME280;11038;50.940;20.564;2022-11-02T04:20:05;98174.63;;;9.98;100.00
21753;BME280;11038;50.940;20.564;2022-11-02T04:21:39;98169.28;;;9.98;100.00
21753;BME280;11038;50.940;20.564;2022-11-02T04:23:11;98172.94;;;9.97;100.00
21753;BME280;11038;50.940;20.564;2022-11-02T04:25:03;98173.78;;;9.98;100.00
21753;BME280;11038;50.940;20.564;2022-11-02T04:26:50;98168.75;;;9.94;100.00
21753;BME280;11038;50.940;20.564;2022-11-02T04:28:22;98176.94;;;9.93;100.00
21753;BME280;11038;50.940;20.564;2022-11-02T04:29:54;98172.94;;;9.97;100.00
21753;BME280;11038;50.940;20.564;2022-11-02T04:31:26;98167.72;;;9.87;100.00
21753;BME280;11038;50.940;20.564;2022-11-02T04:32:59;98170.38;;;9.87;100.00
21753;BME280;11038;50.940;20.564;2022-11-02T04:34:50;98175.56;;;9.89;100.00
21753;BME280;11038;50.940;20.564;2022-11-02T04:36:22;98172.41;;;9.93;100.00
21753;BME280;11038;50.940;20.564;2022-11-02T04:37:55;98172.34;;;9.85;100.00
21753;BME280;11038;50.940;20.564;2022-11-02T04:39:46;98172.81;;;9.80;100.00
21753;BME280;11038;50.940;20.564;2022-11-02T04:41:20;98178.78;;;9.74;100.00
21753;BME280;11038;50.940;20.564;2022-11-02T04:43:12;98175.66;;;9.60;100.00
21753;BME280;11038;50.940;20.564;2022-11-02T04:44:44;98182.06;;;9.68;100.00
21753;BME280;11038;50.940;20.564;2022-11-02T04:46:16;98175.91;;;9.67;100.00
21753;BME280;11038;50.940;20.564;2022-11-02T04:47:48;98174.38;;;9.65;100.00
21753;BME280;11038;50.940;20.564;2022-11-02T04:49:21;98175.28;;;9.73;100.00
21753;BME280;11038;50.940;20.564;2022-11-02T04:50:53;98179.09;;;9.71;100.00
21753;BME280;11038;50.940;20.564;2022-11-02T04:52:25;98180.25;;;9.68;100.00
21753;BME280;11038;50.940;20.564;2022-11-02T04:53:58;98175.72;;;9.69;100.00
21753;BME280;11038;50.940;20.564;2022-11-02T04:55:30;98186.09;;;9.72;100.00
21753;BME280;11038;50.940;20.564;2022-11-02T04:57:03;98185.25;;;9.71;100.00
21753;BME280;11038;50.940;20.564;2022-11-02T04:58:35;98187.09;;;9.71;100.00
21753;BME280;11038;50.940;20.564;2022-11-02T05:00:08;98185.50;;;9.78;100.00
21753;BME280;11038;50.940;20.564;2022-11-02T05:01:41;98185.50;;;9.78;100.00
21753;BME280;11038;50.940;20.564;2022-11-02T05:03:14;98183.81;;;9.77;100.00
21753;BME280;11038;50.940;20.564;2022-11-02T05:04:46;98185.78;;;9.75;100.00
21753;BME280;11038;50.940;20.564;2022-11-02T05:06:20;98192.81;;;9.76;100.00
21753;BME280;11038;50.940;20.564;2022-11-02T05:07:53;98199.00;;;9.77;100.00
21753;BME280;11038;50.940;20.564;2022-11-02T05:09:25;98193.97;;;9.73;100.00
21753;BME280;11038;50.940;20.564;2022-11-02T05:10:58;98191.13;;;9.75;100.00
21753;BME280;11038;50.940;20.564;2022-11-02T05:12:31;98196.63;;;9.73;100.00
21753;BME280;11038;50.940;20.564;2022-11-02T05:14:03;98197.78;;;9.71;100.00
21753;BME280;11038;50.940;20.564;2022-11-02T05:15:38;98204.16;;;9.78;100.00
21753;BME280;11038;50.940;20.564;2022-11-02T05:17:11;98205.16;;;9.77;100.00
21753;BME280;11038;50.940;20.564;2022-11-02T05:18:44;98202.34;;;9.79;100.00
21753;BME280;11038;50.940;20.564;2022-11-02T05:20:17;98199.81;;;9.77;100.00
21753;BME280;11038;50.940;20.564;2022-11-02T05:21:49;98198.16;;;9.76;100.00
21753;BME280;11038;50.940;20.564;2022-11-02T05:23:23;98205.31;;;9.76;100.00
21753;BME280;11038;50.940;20.564;2022-11-02T05:24:55;98201.59;;;9.68;100.00
21753;BME280;11038;50.940;20.564;2022-11-02T05:26:27;98203.25;;;9.69;100.00
21753;BME280;11038;50.940;20.564;2022-11-02T05:27:59;98200.13;;;9.74;100.00
21753;BME280;11038;50.940;20.564;2022-11-02T05:29:32;98204.34;;;9.77;100.00
21753;BME280;11038;50.940;20.564;2022-11-02T05:31:05;98210.41;;;9.69;100.00
21753;BME280;11038;50.940;20.564;2022-11-02T05:32:37;98206.78;;;9.70;100.00
21753;BME280;11038;50.940;20.564;2022-11-02T05:34:10;98212.47;;;9.75;100.00
21753;BME280;11038;50.940;20.564;2022-11-02T05:35:45;98207.16;;;9.75;100.00
21753;BME280;11038;50.940;20.564;2022-11-02T05:37:18;98213.09;;;9.69;100.00
21753;BME280;11038;50.940;20.564;2022-11-02T05:38:54;98214.78;;;9.70;100.00
21753;BME280;11038;50.940;20.564;2022-11-02T05:40:27;98216.47;;;9.71;100.00
21753;BME280;11038;50.940;20.564;2022-11-02T05:41:59;98211.13;;;9.71;100.00
21753;BME280;11038;50.940;20.564;2022-11-02T05:43:31;98212.56;;;9.65;100.00
21753;BME280;11038;50.940;20.564;2022-11-02T05:45:04;98220.66;;;9.73;100.00
21753;BME280;11038;50.940;20.564;2022-11-02T05:46:37;98229.09;;;9.69;100.00
21753;BME280;11038;50.940;20.564;2022-11-02T05:48:09;98232.97;;;9.74;100.00
21753;BME280;11038;50.940;20.564;2022-11-02T05:49:42;98230.31;;;9.74;100.00
21753;BME280;11038;50.940;20.564;2022-11-02T05:51:15;98235.88;;;9.81;100.00
21753;BME280;11038;50.940;20.564;2022-11-02T05:52:47;98225.69;;;9.77;100.00
21753;BME280;11038;50.940;20.564;2022-11-02T05:54:20;98227.13;;;9.71;100.00
21753;BME280;11038;50.940;20.564;2022-11-02T05:55:57;98237.19;;;9.77;100.00
21753;BME280;11038;50.940;20.564;2022-11-02T05:57:30;98238.88;;;9.78;100.00
21753;BME280;11038;50.940;20.564;2022-11-02T05:59:02;98239.84;;;9.77;100.00
21753;BME280;11038;50.940;20.564;2022-11-02T06:00:34;98246.19;;;9.76;100.00
21753;BME280;11038;50.940;20.564;2022-11-02T06:02:07;98240.38;;;9.81;100.00
21753;BME280;11038;50.940;20.564;2022-11-02T06:03:39;98247.53;;;9.80;100.00
21753;BME280;11038;50.940;20.564;2022-11-02T06:05:12;98241.22;;;9.81;100.00
21753;BME280;11038;50.940;20.564;2022-11-02T06:06:45;98244.88;;;9.80;100.00
21753;BME280;11038;50.940;20.564;2022-11-02T06:08:17;98242.88;;;9.82;100.00
21753;BME280;11038;50.940;20.564;2022-11-02T06:09:49;98247.63;;;9.89;100.00
21753;BME280;11038;50.940;20.564;2022-11-02T06:11:22;98244.66;;;9.92;100.00
21753;BME280;11038;50.940;20.564;2022-11-02T06:13:00;98242.88;;;9.82;100.00
21753;BME280;11038;50.940;20.564;2022-11-02T06:14:33;98245.25;;;9.85;100.00
21753;BME280;11038;50.940;20.564;2022-11-02T06:16:10;98248.09;;;9.84;100.00
21753;BME280;11038;50.940;20.564;2022-11-02T06:17:42;98248.63;;;9.88;100.00
21753;BME280;11038;50.940;20.564;2022-11-02T06:19:15;98248.31;;;9.91;100.00
21753;BME280;11038;50.940;20.564;2022-11-02T06:20:47;98256.47;;;9.89;100.00
21753;BME280;11038;50.940;20.564;2022-11-02T06:22:21;98260.97;;;9.89;100.00
21753;BME280;11038;50.940;20.564;2022-11-02T06:23:54;98259.53;;;9.94;100.00
21753;BME280;11038;50.940;20.564;2022-11-02T06:25:26;98263.16;;;9.93;100.00
21753;BME280;11038;50.940;20.564;2022-11-02T06:26:59;98259.44;;;9.86;100.00
21753;BME280;11038;50.940;20.564;2022-11-02T06:28:31;98259.34;;;9.96;100.00
21753;BME280;11038;50.940;20.564;2022-11-02T06:30:04;98258.31;;;9.89;100.00
21753;BME280;11038;50.940;20.564;2022-11-02T06:31:37;98254.19;;;9.94;100.00
21753;BME280;11038;50.940;20.564;2022-11-02T06:33:09;98256.09;;;9.84;100.00
21753;BME280;11038;50.940;20.564;2022-11-02T06:34:42;98256.16;;;9.92;100.00
21753;BME280;11038;50.940;20.564;2022-11-02T06:36:15;98256.53;;;9.98;100.00
21753;BME280;11038;50.940;20.564;2022-11-02T06:37:48;98257.16;;;9.91;100.00
21753;BME280;11038;50.940;20.564;2022-11-02T06:39:20;98258.06;;;10.00;100.00
21753;BME280;11038;50.940;20.564;2022-11-02T06:41:10;98263.63;;;10.07;100.00
21753;BME280;11038;50.940;20.564;2022-11-02T06:42:43;98264.16;;;10.11;100.00
21753;BME280;11038;50.940;20.564;2022-11-02T06:44:36;98262.47;;;10.10;100.00
21753;BME280;11038;50.940;20.564;2022-11-02T06:46:09;98268.34;;;10.13;100.00
21753;BME280;11038;50.940;20.564;2022-11-02T06:47:41;98266.34;;;10.15;100.00
21753;BME280;11038;50.940;20.564;2022-11-02T06:49:14;98264.47;;;10.07;100.00
21753;BME280;11038;50.940;20.564;2022-11-02T06:50:46;98267.50;;;10.13;100.00
21753;BME280;11038;50.940;20.564;2022-11-02T06:52:18;98271.88;;;10.14;100.00
21753;BME280;11038;50.940;20.564;2022-11-02T06:53:51;98269.19;;;10.14;100.00
21753;BME280;11038;50.940;20.564;2022-11-02T06:55:23;98271.50;;;10.08;100.00
21753;BME280;11038;50.940;20.564;2022-11-02T06:56:55;98274.22;;;10.17;100.00
21753;BME280;11038;50.940;20.564;2022-11-02T06:58:28;98269.25;;;10.22;100.00
21753;BME280;11038;50.940;20.564;2022-11-02T07:00:01;98273.59;;;10.23;100.00
21753;BME280;11038;50.940;20.564;2022-11-02T07:01:36;98271.94;;;10.22;100.00
21753;BME280;11038;50.940;20.564;2022-11-02T07:03:09;98274.13;;;10.27;100.00
21753;BME280;11038;50.940;20.564;2022-11-02T07:04:42;98264.75;;;10.23;100.00
21753;BME280;11038;50.940;20.564;2022-11-02T07:06:14;98262.75;;;10.25;100.00
21753;BME280;11038;50.940;20.564;2022-11-02T07:07:47;98266.06;;;10.18;100.00
21753;BME280;11038;50.940;20.564;2022-11-02T07:09:19;98265.75;;;10.22;100.00
21753;BME280;11038;50.940;20.564;2022-11-02T07:10:52;98264.13;;;10.29;100.00
21753;BME280;11038;50.940;20.564;2022-11-02T07:12:25;98264.47;;;10.34;100.00
21753;BME280;11038;50.940;20.564;2022-11-02T07:13:57;98272.66;;;10.33;100.00
21753;BME280;11038;50.940;20.564;2022-11-02T07:15:30;98263.38;;;10.37;100.00
21753;BME280;11038;50.940;20.564;2022-11-02T07:17:03;98268.72;;;10.45;100.00
21753;BME280;11038;50.940;20.564;2022-11-02T07:18:35;98260.72;;;10.45;100.00
21753;BME280;11038;50.940;20.564;2022-11-02T07:20:08;98261.44;;;10.47;100.00
21753;BME280;11038;50.940;20.564;2022-11-02T07:21:43;98261.81;;;10.52;100.00
21753;BME280;11038;50.940;20.564;2022-11-02T07:23:19;98258.84;;;10.56;100.00
21753;BME280;11038;50.940;20.564;2022-11-02T07:24:55;98260.84;;;10.62;100.00
21753;BME280;11038;50.940;20.564;2022-11-02T07:26:27;98263.69;;;10.60;100.00
21753;BME280;11038;50.940;20.564;2022-11-02T07:28:01;98272.38;;;10.62;100.00
21753;BME280;11038;50.940;20.564;2022-11-02T07:29:34;98265.25;;;10.71;100.00
21753;BME280;11038;50.940;20.564;2022-11-02T07:31:07;98266.78;;;10.74;100.00
21753;BME280;11038;50.940;20.564;2022-11-02T07:32:41;98268.00;;;10.80;100.00
21753;BME280;11038;50.940;20.564;2022-11-02T07:34:14;98274.69;;;10.84;100.00
21753;BME280;11038;50.940;20.564;2022-11-02T07:35:48;98269.00;;;10.87;100.00
21753;BME280;11038;50.940;20.564;2022-11-02T07:37:20;98274.56;;;10.94;100.00
21753;BME280;11038;50.940;20.564;2022-11-02T07:38:53;98274.41;;;10.95;100.00
21753;BME280;11038;50.940;20.564;2022-11-02T07:40:27;98266.69;;;10.92;100.00
21753;BME280;11038;50.940;20.564;2022-11-02T07:41:59;98265.72;;;10.93;100.00
21753;BME280;11038;50.940;20.564;2022-11-02T07:43:32;98272.25;;;10.99;100.00
21753;BME280;11038;50.940;20.564;2022-11-02T07:45:05;98270.25;;;11.01;100.00
21753;BME280;11038;50.940;20.564;2022-11-02T07:46:37;98267.44;;;11.11;100.00
21753;BME280;11038;50.940;20.564;2022-11-02T07:48:10;98267.97;;;11.15;100.00
21753;BME280;11038;50.940;20.564;2022-11-02T07:49:42;98270.84;;;11.22;100.00
21753;BME280;11038;50.940;20.564;2022-11-02T07:51:14;98268.19;;;11.30;100.00
21753;BME280;11038;50.940;20.564;2022-11-02T07:52:50;98262.19;;;11.36;100.00
21753;BME280;11038;50.940;20.564;2022-11-02T07:54:22;98258.19;;;11.40;100.00
21753;BME280;11038;50.940;20.564;2022-11-02T07:55:54;98257.53;;;11.47;100.00
21753;BME280;11038;50.940;20.564;2022-11-02T07:57:27;98253.19;;;11.46;100.00
21753;BME280;11038;50.940;20.564;2022-11-02T07:58:59;98258.56;;;11.54;100.00
21753;BME280;11038;50.940;20.564;2022-11-02T08:00:37;98258.22;;;11.57;100.00
21753;BME280;11038;50.940;20.564;2022-11-02T08:02:11;98261.94;;;11.65;100.00
21753;BME280;11038;50.940;20.564;2022-11-02T08:03:45;98262.28;;;11.70;100.00
21753;BME280;11038;50.940;20.564;2022-11-02T08:05:17;98256.91;;;11.70;100.00
21753;BME280;11038;50.940;20.564;2022-11-02T08:06:50;98258.59;;;11.79;100.00
21753;BME280;11038;50.940;20.564;2022-11-02T08:08:25;98254.41;;;11.77;100.00
21753;BME280;11038;50.940;20.564;2022-11-02T08:09:57;98256.09;;;11.86;100.00
21753;BME280;11038;50.940;20.564;2022-11-02T08:11:29;98260.94;;;11.82;100.00
21753;BME280;11038;50.940;20.564;2022-11-02T08:13:02;98254.25;;;11.87;100.00
21753;BME280;11038;50.940;20.564;2022-11-02T08:14:34;98264.13;;;11.86;100.00
21753;BME280;11038;50.940;20.564;2022-11-02T08:16:07;98256.25;;;11.93;100.00
21753;BME280;11038;50.940;20.564;2022-11-02T08:18:08;98258.47;;;11.98;100.00
21753;BME280;11038;50.940;20.564;2022-11-02T08:19:43;98262.78;;;11.99;100.00
21753;BME280;11038;50.940;20.564;2022-11-02T08:21:16;98256.94;;;12.03;100.00
21753;BME280;11038;50.940;20.564;2022-11-02T08:22:48;98260.94;;;11.99;100.00
21753;BME280;11038;50.940;20.564;2022-11-02T08:24:21;98259.78;;;11.93;100.00
21753;BME280;11038;50.940;20.564;2022-11-02T08:25:57;98256.25;;;12.01;100.00
21753;BME280;11038;50.940;20.564;2022-11-02T08:27:30;98261.13;;;11.98;100.00
21753;BME280;11038;50.940;20.564;2022-11-02T08:29:02;98263.63;;;12.07;100.00
21753;BME280;11038;50.940;20.564;2022-11-02T08:30:36;98250.56;;;12.04;100.00
21753;BME280;11038;50.940;20.564;2022-11-02T08:32:09;98258.13;;;12.01;100.00
21753;BME280;11038;50.940;20.564;2022-11-02T08:33:43;98257.66;;;12.14;100.00
21753;BME280;11038;50.940;20.564;2022-11-02T08:35:15;98260.28;;;12.05;100.00
21753;BME280;11038;50.940;20.564;2022-11-02T08:36:48;98248.91;;;12.12;100.00
21753;BME280;11038;50.940;20.564;2022-11-02T08:38:20;98255.31;;;12.19;100.00
21753;BME280;11038;50.940;20.564;2022-11-02T08:39:55;98255.28;;;12.27;100.00
21753;BME280;11038;50.940;20.564;2022-11-02T08:41:27;98247.25;;;12.27;100.00
21753;BME280;11038;50.940;20.564;2022-11-02T08:43:06;98245.44;;;12.20;100.00
21753;BME280;11038;50.940;20.564;2022-11-02T08:44:39;98254.78;;;12.24;100.00